PRIVATE WETTERSTATION BILLIGHEIM-ALLFELD                       ZURCK
Wetterdaten: Montag, 16.01.2017
Datum Zeit Temp. A. Temp. A. min Temp. A. max Feuchte A. Luftdruck Regen Wind Richtung Richtung Sonnenschein ET Solar Taupunkt Windchill Windben Empfang
16.01.2017 00:00 -2,4 C -2,4 C -2,0 C 91 % 1021,7 hPa 0,0 l/m 0,0 km/h (0 Bft) N 0 0 min 0,000 mm 0 W/m -3,7 C -2,4 C 0,0 km/h (0 Bft) 100 %
16.01.2017 00:10 -2,7 C -2,7 C -2,4 C 91 % 1021,6 hPa 0,0 l/m 0,0 km/h (0 Bft) N 0 0 min 0,000 mm 0 W/m -4,0 C -2,7 C 0,0 km/h (0 Bft) 100 %
16.01.2017 00:20 -2,9 C -2,9 C -2,7 C 92 % 1021,6 hPa 0,0 l/m 0,0 km/h (0 Bft) N 0 0 min 0,000 mm 0 W/m -4,0 C -2,9 C 0,0 km/h (0 Bft) 100 %
16.01.2017 00:30 -3,1 C -3,1 C -2,9 C 92 % 1021,7 hPa 0,0 l/m 0,0 km/h (0 Bft) N 0 0 min 0,000 mm 0 W/m -4,2 C -3,1 C 0,0 km/h (0 Bft) 100 %
16.01.2017 00:40 -3,2 C -3,2 C -3,1 C 92 % 1021,6 hPa 0,0 l/m 0,0 km/h (0 Bft) N 0 0 min 0,000 mm 0 W/m -4,3 C -3,2 C 0,0 km/h (0 Bft) 100 %
16.01.2017 00:50 -3,2 C -3,3 C -3,2 C 92 % 1021,7 hPa 0,0 l/m 0,0 km/h (0 Bft) N 0 0 min 0,000 mm 0 W/m -4,3 C -3,2 C 0,0 km/h (0 Bft) 100 %
16.01.2017 01:00 -3,0 C -3,2 C -3,0 C 92 % 1021,6 hPa 0,0 l/m 0,0 km/h (0 Bft) N 0 0 min 0,000 mm 0 W/m -4,1 C -3,0 C 0,0 km/h (0 Bft) 100 %
16.01.2017 01:10 -3,1 C -3,1 C -2,9 C 92 % 1021,6 hPa 0,0 l/m 0,0 km/h (0 Bft) N 0 0 min 0,000 mm 0 W/m -4,2 C -3,1 C 0,0 km/h (0 Bft) 100 %
16.01.2017 01:20 -3,2 C -3,2 C -3,1 C 92 % 1021,6 hPa 0,0 l/m 0,0 km/h (0 Bft) N 0 0 min 0,000 mm 0 W/m -4,3 C -3,2 C 0,0 km/h (0 Bft) 100 %
16.01.2017 01:30 -3,2 C -3,2 C -3,2 C 92 % 1021,7 hPa 0,0 l/m 0,0 km/h (0 Bft) N 0 0 min 0,000 mm 0 W/m -4,3 C -3,2 C 0,0 km/h (0 Bft) 100 %
16.01.2017 01:40 -3,2 C -3,2 C -3,1 C 92 % 1021,8 hPa 0,0 l/m 0,0 km/h (0 Bft) N 0 0 min 0,000 mm 0 W/m -4,3 C -3,2 C 0,0 km/h (0 Bft) 100 %
16.01.2017 01:50 -2,9 C -3,1 C -2,9 C 92 % 1021,7 hPa 0,0 l/m 0,0 km/h (0 Bft) N 0 0 min 0,000 mm 0 W/m -4,0 C -2,9 C 0,0 km/h (0 Bft) 89 %
16.01.2017 02:00 -2,7 C -2,9 C -2,7 C 92 % 1021,8 hPa 0,0 l/m 0,0 km/h (0 Bft) N 0 0 min 0,000 mm 0 W/m -3,8 C -2,7 C 0,0 km/h (0 Bft) 100 %
16.01.2017 02:10 -2,9 C -2,9 C -2,7 C 92 % 1021,8 hPa 0,0 l/m 0,0 km/h (0 Bft) N 0 0 min 0,000 mm 0 W/m -4,0 C -2,9 C 0,0 km/h (0 Bft) 100 %
16.01.2017 02:20 -3,2 C -3,2 C -2,9 C 91 % 1021,8 hPa 0,0 l/m 0,0 km/h (0 Bft) N 0 0 min 0,000 mm 0 W/m -4,5 C -3,2 C 0,0 km/h (0 Bft) 100 %
16.01.2017 02:30 -3,4 C -3,4 C -3,2 C 91 % 1021,8 hPa 0,0 l/m 0,0 km/h (0 Bft) N 0 0 min 0,000 mm 0 W/m -4,7 C -3,4 C 0,0 km/h (0 Bft) 100 %
16.01.2017 02:40 -3,6 C -3,6 C -3,4 C 91 % 1021,8 hPa 0,0 l/m 0,0 km/h (0 Bft) N 0 0 min 0,000 mm 0 W/m -4,8 C -3,6 C 0,0 km/h (0 Bft) 100 %
16.01.2017 02:50 -3,7 C -3,7 C -3,6 C 91 % 1021,8 hPa 0,0 l/m 0,0 km/h (0 Bft) N 0 0 min 0,000 mm 0 W/m -4,9 C -3,7 C 0,0 km/h (0 Bft) 100 %
16.01.2017 03:00 -3,7 C -3,7 C -3,7 C 92 % 1021,8 hPa 0,0 l/m 0,0 km/h (0 Bft) N 0 0 min 0,000 mm 0 W/m -4,8 C -3,7 C 0,0 km/h (0 Bft) 100 %
16.01.2017 03:10 -3,8 C -3,8 C -3,7 C 92 % 1021,9 hPa 0,0 l/m 0,0 km/h (0 Bft) N 0 0 min 0,000 mm 0 W/m -4,9 C -3,8 C 0,0 km/h (0 Bft) 100 %
16.01.2017 03:20 -3,9 C -3,9 C -3,8 C 92 % 1021,9 hPa 0,0 l/m 0,0 km/h (0 Bft) N 0 0 min 0,000 mm 0 W/m -5,0 C -3,9 C 0,0 km/h (0 Bft) 100 %
16.01.2017 03:30 -4,1 C -4,1 C -3,9 C 92 % 1021,9 hPa 0,0 l/m 0,0 km/h (0 Bft) N 0 0 min 0,000 mm 0 W/m -5,2 C -4,1 C 0,0 km/h (0 Bft) 100 %
16.01.2017 03:40 -4,2 C -4,2 C -4,1 C 92 % 1022,0 hPa 0,0 l/m 0,0 km/h (0 Bft) N 0 0 min 0,000 mm 0 W/m -5,3 C -4,2 C 0,0 km/h (0 Bft) 100 %
16.01.2017 03:50 -4,3 C -4,3 C -4,2 C 92 % 1021,8 hPa 0,0 l/m 0,0 km/h (0 Bft) N 0 0 min 0,000 mm 0 W/m -5,4 C -4,3 C 0,0 km/h (0 Bft) 100 %
16.01.2017 04:00 -4,2 C -4,3 C -4,2 C 92 % 1021,8 hPa 0,0 l/m 0,0 km/h (0 Bft) N 0 0 min 0,000 mm 0 W/m -5,3 C -4,2 C 0,0 km/h (0 Bft) 100 %
16.01.2017 04:10 -4,0 C -4,2 C -4,0 C 92 % 1021,8 hPa 0,0 l/m 0,0 km/h (0 Bft) N 0 0 min 0,000 mm 0 W/m -5,1 C -4,0 C 0,0 km/h (0 Bft) 100 %
16.01.2017 04:20 -4,2 C -4,2 C -4,0 C 91 % 1021,8 hPa 0,0 l/m 0,0 km/h (0 Bft) N 0 0 min 0,000 mm 0 W/m -5,4 C -4,2 C 0,0 km/h (0 Bft) 100 %
16.01.2017 04:30 -4,6 C -4,6 C -4,2 C 91 % 1021,9 hPa 0,0 l/m 0,0 km/h (0 Bft) N 0 0 min 0,000 mm 0 W/m -5,8 C -4,6 C 0,0 km/h (0 Bft) 100 %
16.01.2017 04:40 -4,7 C -4,7 C -4,6 C 91 % 1021,9 hPa 0,0 l/m 0,0 km/h (0 Bft) N 0 0 min 0,000 mm 0 W/m -5,9 C -4,7 C 0,0 km/h (0 Bft) 100 %
16.01.2017 04:50 -4,8 C -4,8 C -4,7 C 91 % 1022,0 hPa 0,0 l/m 0,0 km/h (0 Bft) N 0 0 min 0,000 mm 0 W/m -6,0 C -4,8 C 0,0 km/h (0 Bft) 100 %
16.01.2017 05:00 -4,8 C -4,8 C -4,7 C 91 % 1022,1 hPa 0,0 l/m 0,0 km/h (0 Bft) N 0 0 min 0,000 mm 0 W/m -6,0 C -4,8 C 0,0 km/h (0 Bft) 100 %
16.01.2017 05:10 -5,0 C -5,0 C -4,8 C 91 % 1022,2 hPa 0,0 l/m 0,0 km/h (0 Bft) N 0 0 min 0,000 mm 0 W/m -6,2 C -5,0 C 0,0 km/h (0 Bft) 98 %
16.01.2017 05:20 -5,1 C -5,1 C -5,0 C 91 % 1022,2 hPa 0,0 l/m 0,0 km/h (0 Bft) N 0 0 min 0,000 mm 0 W/m -6,3 C -5,1 C 0,0 km/h (0 Bft) 98 %
16.01.2017 05:30 -5,3 C -5,3 C -5,0 C 90 % 1022,2 hPa 0,0 l/m 0,0 km/h (0 Bft) N 0 0 min 0,000 mm 0 W/m -6,7 C -5,3 C 0,0 km/h (0 Bft) 98 %
16.01.2017 05:40 -5,4 C -5,4 C -5,3 C 91 % 1022,4 hPa 0,0 l/m 0,0 km/h (0 Bft) N 0 0 min 0,000 mm 0 W/m -6,6 C -5,4 C 0,0 km/h (0 Bft) 97 %
16.01.2017 05:50 -5,8 C -5,8 C -5,4 C 90 % 1022,4 hPa 0,0 l/m 0,0 km/h (0 Bft) N 0 0 min 0,000 mm 0 W/m -7,2 C -5,8 C 0,0 km/h (0 Bft) 98 %
16.01.2017 06:00 -6,1 C -6,1 C -5,8 C 90 % 1022,6 hPa 0,0 l/m 0,0 km/h (0 Bft) N 0 0 min 0,000 mm 0 W/m -7,5 C -6,1 C 0,0 km/h (0 Bft) 97 %
16.01.2017 06:10 -6,3 C -6,3 C -6,1 C 91 % 1022,5 hPa 0,0 l/m 0,0 km/h (0 Bft) N 0 0 min 0,000 mm 0 W/m -7,5 C -6,3 C 0,0 km/h (0 Bft) 98 %
16.01.2017 06:20 -6,4 C -6,4 C -6,2 C 92 % 1022,4 hPa 0,0 l/m 0,0 km/h (0 Bft) N 0 0 min 0,000 mm 0 W/m -7,5 C -6,4 C 0,0 km/h (0 Bft) 98 %
16.01.2017 06:30 -6,5 C -6,5 C -6,4 C 92 % 1022,5 hPa 0,0 l/m 0,0 km/h (0 Bft) N 0 0 min 0,000 mm 0 W/m -7,6 C -6,5 C 0,0 km/h (0 Bft) 98 %
16.01.2017 06:40 -7,1 C -7,1 C -6,5 C 90 % 1022,5 hPa 0,0 l/m 0,0 km/h (0 Bft) N 0 0 min 0,000 mm 0 W/m -8,5 C -7,1 C 0,0 km/h (0 Bft) 98 %
16.01.2017 06:50 -7,7 C -7,7 C -7,1 C 90 % 1022,6 hPa 0,0 l/m 0,0 km/h (0 Bft) N 0 0 min 0,000 mm 0 W/m -9,0 C -7,7 C 0,0 km/h (0 Bft) 98 %
16.01.2017 07:00 -8,2 C -8,2 C -7,7 C 90 % 1022,8 hPa 0,0 l/m 0,0 km/h (0 Bft) N 0 0 min 0,000 mm 0 W/m -9,5 C -8,2 C 0,0 km/h (0 Bft) 98 %
16.01.2017 07:10 -8,8 C -8,8 C -8,2 C 89 % 1022,8 hPa 0,0 l/m 0,0 km/h (0 Bft) N 0 0 min 0,000 mm 0 W/m -10,3 C -8,8 C 0,0 km/h (0 Bft) 97 %
16.01.2017 07:20 -9,3 C -9,3 C -8,8 C 89 % 1023,1 hPa 0,0 l/m 0,0 km/h (0 Bft) NW 315 0 min 0,000 mm 0 W/m -10,8 C -9,3 C 1,6 km/h (1 Bft) 98 %
16.01.2017 07:30 -9,6 C -9,6 C -9,3 C 90 % 1023,3 hPa 0,0 l/m 0,0 km/h (0 Bft) N 0 0 min 0,000 mm 0 W/m -10,9 C -9,6 C 0,0 km/h (0 Bft) 97 %
16.01.2017 07:40 -9,1 C -9,6 C -9,1 C 92 % 1023,3 hPa 0,0 l/m 0,0 km/h (0 Bft) N 0 0 min 0,000 mm 0 W/m -10,2 C -9,1 C 0,0 km/h (0 Bft) 97 %
16.01.2017 07:50 -8,5 C -9,1 C -8,5 C 92 % 1023,4 hPa 0,0 l/m 0,0 km/h (0 Bft) N 0 0 min 0,000 mm 0 W/m -9,6 C -8,5 C 0,0 km/h (0 Bft) 97 %
16.01.2017 08:00 -8,4 C -8,5 C -8,3 C 91 % 1023,5 hPa 0,0 l/m 0,0 km/h (0 Bft) N 0 0 min 0,000 mm 0 W/m -9,6 C -8,4 C 0,0 km/h (0 Bft) 97 %
16.01.2017 08:10 -8,8 C -8,8 C -8,4 C 90 % 1023,4 hPa 0,0 l/m 0,0 km/h (0 Bft) N 0 0 min 0,000 mm 0 W/m -10,1 C -8,8 C 0,0 km/h (0 Bft) 97 %
16.01.2017 08:20 -9,0 C -9,0 C -8,8 C 90 % 1023,5 hPa 0,0 l/m 0,0 km/h (0 Bft) N 0 0 min 0,000 mm 0 W/m -10,3 C -9,0 C 0,0 km/h (0 Bft) 97 %
16.01.2017 08:30 -9,4 C -9,4 C -9,0 C 89 % 1023,7 hPa 0,0 l/m 0,0 km/h (0 Bft) N 0 0 min 0,000 mm 0 W/m -10,9 C -9,4 C 0,0 km/h (0 Bft) 98 %
16.01.2017 08:40 -9,3 C -9,5 C -9,3 C 91 % 1023,7 hPa 0,0 l/m 0,0 km/h (0 Bft) N 0 0 min 0,000 mm 5 W/m -10,5 C -9,3 C 0,0 km/h (0 Bft) 97 %
16.01.2017 08:50 -8,9 C -9,3 C -8,9 C 92 % 1023,7 hPa 0,0 l/m 0,0 km/h (0 Bft) N 0 0 min 0,000 mm 7 W/m -10,0 C -8,9 C 0,0 km/h (0 Bft) 98 %
16.01.2017 09:00 -8,9 C -8,9 C -8,9 C 91 % 1023,9 hPa 0,0 l/m 0,0 km/h (0 Bft) N 0 0 min 0,000 mm 12 W/m -10,1 C -8,9 C 0,0 km/h (0 Bft) 97 %
16.01.2017 09:10 -9,1 C -9,1 C -8,9 C 91 % 1024,0 hPa 0,0 l/m 0,0 km/h (0 Bft) N 0 0 min 0,000 mm 30 W/m -10,3 C -9,1 C 0,0 km/h (0 Bft) 97 %
16.01.2017 09:20 -9,4 C -9,4 C -9,1 C 90 % 1024,2 hPa 0,0 l/m 0,0 km/h (0 Bft) N 0 0 min 0,000 mm 91 W/m -10,7 C -9,4 C 0,0 km/h (0 Bft) 98 %
16.01.2017 09:30 -9,1 C -9,4 C -9,1 C 91 % 1024,2 hPa 0,0 l/m 0,0 km/h (0 Bft) N 0 0 min 0,000 mm 97 W/m -10,3 C -9,1 C 0,0 km/h (0 Bft) 97 %
16.01.2017 09:40 -8,6 C -9,4 C -8,6 C 91 % 1024,3 hPa 0,0 l/m 0,0 km/h (0 Bft) NW 319 0 min 0,000 mm 114 W/m -9,8 C -8,6 C 0,0 km/h (0 Bft) 100 %
16.01.2017 09:50 -7,9 C -8,6 C -7,9 C 92 % 1024,3 hPa 0,0 l/m 0,0 km/h (0 Bft) NW 319 0 min 0,000 mm 127 W/m -9,0 C -7,9 C 0,0 km/h (0 Bft) 100 %
16.01.2017 10:00 -7,2 C -7,9 C -7,2 C 91 % 1024,4 hPa 0,0 l/m 0,0 km/h (0 Bft) NW 319 0 min 0,025 mm 139 W/m -8,4 C -7,2 C 0,0 km/h (0 Bft) 100 %
16.01.2017 10:10 -6,8 C -7,2 C -6,8 C 90 % 1024,5 hPa 0,0 l/m 0,0 km/h (0 Bft) NW 319 10 min 0,000 mm 174 W/m -8,2 C -6,8 C 0,0 km/h (0 Bft) 100 %
16.01.2017 10:20 -6,2 C -6,8 C -6,2 C 89 % 1024,6 hPa 0,0 l/m 0,0 km/h (0 Bft) NW 319 10 min 0,000 mm 211 W/m -7,7 C -6,2 C 0,0 km/h (0 Bft) 100 %
16.01.2017 10:30 -5,8 C -6,2 C -5,8 C 89 % 1024,7 hPa 0,0 l/m 0,0 km/h (0 Bft) NW 319 10 min 0,000 mm 306 W/m -7,3 C -5,8 C 0,0 km/h (0 Bft) 100 %
16.01.2017 10:40 -5,3 C -5,8 C -5,3 C 88 % 1024,8 hPa 0,0 l/m 0,0 km/h (0 Bft) NW 319 10 min 0,000 mm 294 W/m -7,0 C -5,3 C 0,0 km/h (0 Bft) 100 %
16.01.2017 10:50 -4,8 C -5,3 C -4,8 C 88 % 1024,8 hPa 0,0 l/m 0,0 km/h (0 Bft) NW 319 10 min 0,000 mm 288 W/m -6,5 C -4,8 C 0,0 km/h (0 Bft) 99 %
16.01.2017 11:00 -3,8 C -4,8 C -3,8 C 86 % 1024,8 hPa 0,0 l/m 0,0 km/h (0 Bft) NW 319 10 min 0,077 mm 287 W/m -5,8 C -3,8 C 0,0 km/h (0 Bft) 100 %
16.01.2017 11:10 -3,5 C -3,8 C -3,5 C 86 % 1024,9 hPa 0,0 l/m 0,0 km/h (0 Bft) NW 319 10 min 0,000 mm 292 W/m -5,5 C -3,5 C 0,0 km/h (0 Bft) 100 %
16.01.2017 11:20 -3,2 C -3,5 C -3,2 C 85 % 1024,9 hPa 0,0 l/m 0,0 km/h (0 Bft) NW 319 10 min 0,000 mm 299 W/m -5,4 C -3,2 C 0,0 km/h (0 Bft) 97 %
16.01.2017 11:30 -3,6 C -3,6 C -3,1 C 82 % 1024,9 hPa 0,0 l/m 0,0 km/h (0 Bft) NW 319 10 min 0,000 mm 304 W/m -6,2 C -3,6 C 0,0 km/h (0 Bft) 97 %
16.01.2017 11:40 -3,1 C -3,6 C -3,1 C 86 % 1025,0 hPa 0,0 l/m 0,0 km/h (0 Bft) NW 319 10 min 0,000 mm 313 W/m -5,1 C -3,1 C 0,0 km/h (0 Bft) 89 %
16.01.2017 11:50 -2,4 C -3,1 C -2,4 C 84 % 1025,0 hPa 0,0 l/m 0,0 km/h (0 Bft) NW 319 10 min 0,000 mm 248 W/m -4,7 C -2,4 C 0,0 km/h (0 Bft) 97 %
16.01.2017 12:00 -1,9 C -2,4 C -1,9 C 82 % 1025,0 hPa 0,0 l/m 0,0 km/h (0 Bft) NW 319 10 min 0,076 mm 325 W/m -4,6 C -1,9 C 0,0 km/h (0 Bft) 97 %
16.01.2017 12:10 -1,7 C -1,9 C -1,7 C 82 % 1025,0 hPa 0,0 l/m 0,0 km/h (0 Bft) NW 319 10 min 0,000 mm 327 W/m -4,4 C -1,7 C 0,0 km/h (0 Bft) 97 %
16.01.2017 12:20 -1,8 C -1,8 C -1,7 C 81 % 1025,0 hPa 0,0 l/m 0,4 km/h (0 Bft) NW 323 10 min 0,000 mm 330 W/m -4,6 C -1,8 C 3,2 km/h (1 Bft) 97 %
16.01.2017 12:30 -2,1 C -2,1 C -1,8 C 82 % 1024,9 hPa 0,0 l/m 0,1 km/h (0 Bft) NW 323 10 min 0,000 mm 339 W/m -4,7 C -2,1 C 3,2 km/h (1 Bft) 98 %
16.01.2017 12:40 -2,1 C -2,1 C -2,1 C 82 % 1024,9 hPa 0,0 l/m 0,4 km/h (0 Bft) NW 323 10 min 0,000 mm 294 W/m -4,7 C -2,1 C 3,2 km/h (1 Bft) 98 %
16.01.2017 12:50 -2,0 C -2,1 C -2,0 C 82 % 1024,9 hPa 0,0 l/m 0,5 km/h (0 Bft) NW 325 10 min 0,000 mm 341 W/m -4,7 C -2,0 C 4,8 km/h (1 Bft) 99 %
16.01.2017 13:00 -1,8 C -2,0 C -1,8 C 82 % 1024,8 hPa 0,0 l/m 0,5 km/h (0 Bft) NW 326 10 min 0,101 mm 227 W/m -4,5 C -1,8 C 3,2 km/h (1 Bft) 99 %
16.01.2017 13:10 -1,8 C -1,8 C -1,8 C 81 % 1024,9 hPa 0,0 l/m 0,3 km/h (0 Bft) N-NW 327 10 min 0,000 mm 332 W/m -4,6 C -1,8 C 3,2 km/h (1 Bft) 99 %
16.01.2017 13:20 -1,7 C -1,8 C -1,7 C 81 % 1024,9 hPa 0,0 l/m 0,6 km/h (0 Bft) N-NW 328 10 min 0,000 mm 199 W/m -4,5 C -1,7 C 4,8 km/h (1 Bft) 99 %
16.01.2017 13:30 -1,7 C -1,7 C -1,7 C 80 % 1024,9 hPa 0,0 l/m 0,1 km/h (0 Bft) N-NW 329 10 min 0,000 mm 214 W/m -4,7 C -1,7 C 1,6 km/h (1 Bft) 98 %
16.01.2017 13:40 -1,8 C -1,8 C -1,7 C 80 % 1024,9 hPa 0,0 l/m 0,6 km/h (0 Bft) N-NW 342 0 min 0,000 mm 91 W/m -4,8 C -1,8 C 6,4 km/h (2 Bft) 99 %
16.01.2017 13:50 -2,0 C -2,0 C -1,8 C 80 % 1024,8 hPa 0,0 l/m 1,1 km/h (1 Bft) N 5 0 min 0,000 mm 135 W/m -5,0 C -2,0 C 4,8 km/h (1 Bft) 99 %
16.01.2017 14:00 -2,1 C -2,1 C -2,0 C 81 % 1024,8 hPa 0,0 l/m 0,9 km/h (0 Bft) N 5 10 min 0,077 mm 255 W/m -4,9 C -2,1 C 4,8 km/h (1 Bft) 100 %
16.01.2017 14:10 -2,2 C -2,2 C -2,1 C 80 % 1024,8 hPa 0,0 l/m 0,8 km/h (0 Bft) N 5 10 min 0,000 mm 251 W/m -5,2 C -2,2 C 4,8 km/h (1 Bft) 90 %
16.01.2017 14:20 -2,2 C -2,2 C -2,2 C 81 % 1024,8 hPa 0,0 l/m 0,5 km/h (0 Bft) N-NO 12 10 min 0,000 mm 156 W/m -5,0 C -2,2 C 4,8 km/h (1 Bft) 100 %
16.01.2017 14:30 -2,1 C -2,2 C -2,1 C 81 % 1024,9 hPa 0,0 l/m 0,7 km/h (0 Bft) N-NO 18 10 min 0,000 mm 257 W/m -4,9 C -2,1 C 4,8 km/h (1 Bft) 97 %
16.01.2017 14:40 -2,1 C -2,1 C -2,0 C 80 % 1025,1 hPa 0,0 l/m 0,8 km/h (0 Bft) N-NO 20 0 min 0,000 mm 130 W/m -5,1 C -2,1 C 4,8 km/h (1 Bft) 98 %
16.01.2017 14:50 -2,1 C -2,1 C -2,1 C 80 % 1025,1 hPa 0,0 l/m 0,4 km/h (0 Bft) N-NO 20 10 min 0,000 mm 158 W/m -5,1 C -2,1 C 4,8 km/h (1 Bft) 98 %
16.01.2017 15:00 -1,8 C -2,1 C -1,8 C 80 % 1025,1 hPa 0,0 l/m 0,8 km/h (0 Bft) N 5 0 min 0,050 mm 74 W/m -4,8 C -1,8 C 8,0 km/h (2 Bft) 97 %
16.01.2017 15:10 -1,9 C -1,9 C -1,7 C 78 % 1025,3 hPa 0,0 l/m 0,3 km/h (0 Bft) N 5 0 min 0,000 mm 58 W/m -5,2 C -1,9 C 4,8 km/h (1 Bft) 98 %
16.01.2017 15:20 -2,2 C -2,2 C -1,9 C 78 % 1025,5 hPa 0,0 l/m 0,4 km/h (0 Bft) NO 40 0 min 0,000 mm 54 W/m -5,5 C -2,2 C 11,3 km/h (2 Bft) 97 %
16.01.2017 15:30 -2,4 C -2,4 C -2,2 C 79 % 1025,6 hPa 0,0 l/m 0,3 km/h (0 Bft) NO 40 0 min 0,000 mm 79 W/m -5,5 C -2,4 C 4,8 km/h (1 Bft) 100 %
16.01.2017 15:40 -2,6 C -2,6 C -2,4 C 79 % 1025,7 hPa 0,0 l/m 2,0 km/h (1 Bft) NO 40 0 min 0,000 mm 51 W/m -5,7 C -2,6 C 6,4 km/h (2 Bft) 91 %
16.01.2017 15:50 -2,7 C -2,7 C -2,6 C 79 % 1025,8 hPa 0,0 l/m 1,9 km/h (1 Bft) NO 38 0 min 0,000 mm 35 W/m -5,8 C -2,7 C 6,4 km/h (2 Bft) 99 %
16.01.2017 16:00 -2,8 C -2,8 C -2,7 C 78 % 1025,9 hPa 0,0 l/m 1,8 km/h (1 Bft) O-NO 69 0 min 0,026 mm 26 W/m -6,1 C -2,8 C 8,0 km/h (2 Bft) 100 %
16.01.2017 16:10 -2,9 C -2,9 C -2,8 C 78 % 1026,0 hPa 0,0 l/m 0,9 km/h (0 Bft) O-NO 63 0 min 0,000 mm 16 W/m -6,2 C -2,9 C 4,8 km/h (1 Bft) 99 %
16.01.2017 16:20 -3,0 C -3,0 C -2,9 C 79 % 1026,0 hPa 0,0 l/m 0,3 km/h (0 Bft) O-NO 61 0 min 0,000 mm 12 W/m -6,1 C -3,0 C 4,8 km/h (1 Bft) 99 %
16.01.2017 16:30 -3,1 C -3,1 C -3,0 C 80 % 1026,2 hPa 0,0 l/m 0,0 km/h (0 Bft) O-NO 61 0 min 0,000 mm 9 W/m -6,0 C -3,1 C 1,6 km/h (1 Bft) 99 %
16.01.2017 16:40 -3,1 C -3,1 C -3,0 C 80 % 1026,2 hPa 0,0 l/m 0,1 km/h (0 Bft) NO 56 0 min 0,000 mm 5 W/m -6,0 C -3,1 C 4,8 km/h (1 Bft) 99 %
16.01.2017 16:50 -3,2 C -3,2 C -3,1 C 81 % 1026,2 hPa 0,0 l/m 0,0 km/h (0 Bft) NO 56 0 min 0,000 mm 0 W/m -6,0 C -3,2 C 0,0 km/h (0 Bft) 98 %
16.01.2017 17:00 -3,2 C -3,2 C -3,2 C 81 % 1026,3 hPa 0,0 l/m 0,0 km/h (0 Bft) NO 56 0 min 0,000 mm 0 W/m -6,0 C -3,2 C 0,0 km/h (0 Bft) 100 %
16.01.2017 17:10 -3,3 C -3,3 C -3,2 C 80 % 1026,4 hPa 0,0 l/m 0,0 km/h (0 Bft) NO 53 0 min 0,000 mm 0 W/m -6,2 C -3,3 C 0,0 km/h (0 Bft) 99 %
16.01.2017 17:20 -3,4 C -3,4 C -3,3 C 80 % 1026,5 hPa 0,0 l/m 0,0 km/h (0 Bft) NO 53 0 min 0,000 mm 0 W/m -6,3 C -3,4 C 0,0 km/h (0 Bft) 99 %
16.01.2017 17:30 -3,6 C -3,6 C -3,4 C 79 % 1026,7 hPa 0,0 l/m 0,3 km/h (0 Bft) NO 53 0 min 0,000 mm 0 W/m -6,7 C -3,6 C 4,8 km/h (1 Bft) 100 %
16.01.2017 17:40 -3,8 C -3,8 C -3,6 C 81 % 1026,8 hPa 0,0 l/m 0,0 km/h (0 Bft) NO 53 0 min 0,000 mm 0 W/m -6,6 C -3,8 C 0,0 km/h (0 Bft) 99 %
16.01.2017 17:50 -3,9 C -3,9 C -3,8 C 82 % 1026,8 hPa 0,0 l/m 0,0 km/h (0 Bft) NO 53 0 min 0,000 mm 0 W/m -6,5 C -3,9 C 0,0 km/h (0 Bft) 100 %
16.01.2017 18:00 -4,1 C -4,1 C -3,9 C 82 % 1026,9 hPa 0,0 l/m 0,0 km/h (0 Bft) NO 53 0 min 0,000 mm 0 W/m -6,7 C -4,1 C 0,0 km/h (0 Bft) 99 %
16.01.2017 18:10 -4,1 C -4,1 C -4,1 C 83 % 1027,0 hPa 0,0 l/m 0,0 km/h (0 Bft) NO 53 0 min 0,000 mm 0 W/m -6,5 C -4,1 C 0,0 km/h (0 Bft) 98 %
16.01.2017 18:20 -4,1 C -4,2 C -4,1 C 84 % 1027,0 hPa 0,0 l/m 0,0 km/h (0 Bft) NO 53 0 min 0,000 mm 0 W/m -6,4 C -4,1 C 0,0 km/h (0 Bft) 98 %
16.01.2017 18:30 -4,2 C -4,2 C -4,1 C 84 % 1027,0 hPa 0,0 l/m 0,0 km/h (0 Bft) NO 53 0 min 0,000 mm 0 W/m -6,5 C -4,2 C 3,2 km/h (1 Bft) 89 %
16.01.2017 18:40 -4,2 C -4,2 C -4,1 C 85 % 1027,1 hPa 0,0 l/m 0,0 km/h (0 Bft) NO 53 0 min 0,000 mm 0 W/m -6,3 C -4,2 C 0,0 km/h (0 Bft) 97 %
16.01.2017 18:50 -4,2 C -4,2 C -4,2 C 85 % 1027,2 hPa 0,0 l/m 0,0 km/h (0 Bft) NO 53 0 min 0,000 mm 0 W/m -6,3 C -4,2 C 0,0 km/h (0 Bft) 96 %
16.01.2017 19:00 -4,2 C -4,3 C -4,2 C 85 % 1027,2 hPa 0,0 l/m 0,0 km/h (0 Bft) NO 53 0 min 0,000 mm 0 W/m -6,3 C -4,2 C 0,0 km/h (0 Bft) 98 %
16.01.2017 19:10 -4,2 C -4,2 C -4,2 C 85 % 1027,3 hPa 0,0 l/m 0,0 km/h (0 Bft) NO 53 0 min 0,000 mm 0 W/m -6,3 C -4,2 C 0,0 km/h (0 Bft) 98 %
16.01.2017 19:20 -4,2 C -4,2 C -4,2 C 85 % 1027,5 hPa 0,0 l/m 0,0 km/h (0 Bft) NO 53 0 min 0,000 mm 0 W/m -6,3 C -4,2 C 0,0 km/h (0 Bft) 97 %
16.01.2017 19:30 -4,2 C -4,2 C -4,2 C 85 % 1027,6 hPa 0,0 l/m 0,0 km/h (0 Bft) NO 53 0 min 0,000 mm 0 W/m -6,3 C -4,2 C 1,6 km/h (1 Bft) 97 %
16.01.2017 19:40 -4,2 C -4,3 C -4,2 C 86 % 1027,7 hPa 0,0 l/m 0,2 km/h (0 Bft) NO 53 0 min 0,000 mm 0 W/m -6,2 C -4,2 C 1,6 km/h (1 Bft) 97 %
16.01.2017 19:50 -4,3 C -4,3 C -4,2 C 86 % 1027,9 hPa 0,0 l/m 0,2 km/h (0 Bft) NO 49 0 min 0,000 mm 0 W/m -6,3 C -4,3 C 3,2 km/h (1 Bft) 98 %
16.01.2017 20:00 -4,3 C -4,3 C -4,3 C 86 % 1027,9 hPa 0,0 l/m 0,0 km/h (0 Bft) NO 49 0 min 0,000 mm 0 W/m -6,3 C -4,3 C 0,0 km/h (0 Bft) 97 %
16.01.2017 20:10 -4,4 C -4,4 C -4,3 C 85 % 1028,0 hPa 0,0 l/m 0,0 km/h (0 Bft) NO 48 0 min 0,000 mm 0 W/m -6,5 C -4,4 C 0,0 km/h (0 Bft) 97 %
16.01.2017 20:20 -4,6 C -4,6 C -4,4 C 85 % 1028,0 hPa 0,0 l/m 0,1 km/h (0 Bft) NO 48 0 min 0,000 mm 0 W/m -6,7 C -4,6 C 4,8 km/h (1 Bft) 98 %
16.01.2017 20:30 -4,8 C -4,8 C -4,6 C 85 % 1028,1 hPa 0,0 l/m 0,0 km/h (0 Bft) NO 48 0 min 0,000 mm 0 W/m -6,9 C -4,8 C 0,0 km/h (0 Bft) 97 %
16.01.2017 20:40 -4,8 C -4,9 C -4,8 C 86 % 1028,2 hPa 0,0 l/m 0,0 km/h (0 Bft) NO 48 0 min 0,000 mm 0 W/m -6,8 C -4,8 C 1,6 km/h (1 Bft) 97 %
16.01.2017 20:50 -4,9 C -4,9 C -4,8 C 87 % 1028,3 hPa 0,0 l/m 0,0 km/h (0 Bft) NO 47 0 min 0,000 mm 0 W/m -6,7 C -4,9 C 1,6 km/h (1 Bft) 97 %
16.01.2017 21:00 -4,9 C -4,9 C -4,9 C 87 % 1028,2 hPa 0,0 l/m 0,2 km/h (0 Bft) NO 44 0 min 0,000 mm 0 W/m -6,7 C -4,9 C 3,2 km/h (1 Bft) 97 %
16.01.2017 21:10 -4,8 C -4,9 C -4,8 C 88 % 1028,4 hPa 0,0 l/m 0,0 km/h (0 Bft) N-NO 22 0 min 0,000 mm 0 W/m -6,5 C -4,8 C 4,8 km/h (1 Bft) 100 %
16.01.2017 21:20 -4,7 C -4,8 C -4,7 C 87 % 1028,4 hPa 0,0 l/m 1,6 km/h (1 Bft) N 360 0 min 0,000 mm 0 W/m -6,5 C -4,7 C 6,4 km/h (2 Bft) 100 %
16.01.2017 21:30 -4,8 C -4,8 C -4,7 C 86 % 1028,6 hPa 0,0 l/m 0,0 km/h (0 Bft) NO 45 0 min 0,000 mm 0 W/m -6,8 C -4,8 C 9,7 km/h (2 Bft) 100 %
16.01.2017 21:40 -5,0 C -5,0 C -4,8 C 86 % 1028,7 hPa 0,0 l/m 0,0 km/h (0 Bft) NO 45 0 min 0,000 mm 0 W/m -7,0 C -5,0 C 3,2 km/h (1 Bft) 100 %
16.01.2017 21:50 -5,3 C -5,3 C -5,0 C 86 % 1028,7 hPa 0,0 l/m 0,0 km/h (0 Bft) NO 45 0 min 0,000 mm 0 W/m -7,3 C -5,3 C 4,8 km/h (1 Bft) 100 %
16.01.2017 22:00 -5,5 C -5,5 C -5,3 C 86 % 1028,6 hPa 0,0 l/m 0,0 km/h (0 Bft) N 0 0 min 0,000 mm 0 W/m -7,5 C -5,5 C 0,0 km/h (0 Bft) 100 %
16.01.2017 22:10 -5,9 C -5,9 C -5,5 C 86 % 1029,0 hPa 0,0 l/m 0,0 km/h (0 Bft) NO 45 0 min 0,000 mm 0 W/m -7,9 C -5,9 C 3,2 km/h (1 Bft) 94 %
16.01.2017 22:20 -6,2 C -6,2 C -5,9 C 94 % 1029,0 hPa 0,0 l/m 1,6 km/h (1 Bft) NO 45 0 min 0,000 mm 0 W/m -7,0 C -6,2 C 4,8 km/h (1 Bft) 96 %
16.01.2017 22:30 -6,4 C -6,4 C -6,2 C 87 % 1029,2 hPa 0,0 l/m 1,6 km/h (1 Bft) NO 45 0 min 0,000 mm 0 W/m -8,2 C -6,4 C 4,8 km/h (1 Bft) 100 %
16.01.2017 22:40 -6,6 C -6,6 C -6,4 C 87 % 1029,2 hPa 0,0 l/m 1,6 km/h (1 Bft) NO 45 0 min 0,000 mm 0 W/m -8,4 C -6,6 C 4,8 km/h (1 Bft) 100 %
16.01.2017 22:50 -6,9 C -6,9 C -6,6 C 87 % 1029,2 hPa 0,0 l/m 0,0 km/h (0 Bft) N 0 0 min 0,000 mm 0 W/m -8,7 C -6,9 C 0,0 km/h (0 Bft) 100 %
16.01.2017 23:00 -7,2 C -7,2 C -6,9 C 88 % 1029,3 hPa 0,0 l/m 0,0 km/h (0 Bft) N 0 0 min 0,000 mm 0 W/m -8,8 C -7,2 C 0,0 km/h (0 Bft) 100 %
16.01.2017 23:10 -7,4 C -7,4 C -7,2 C 88 % 1029,2 hPa 0,0 l/m 0,0 km/h (0 Bft) NO 45 0 min 0,000 mm 0 W/m -9,0 C -7,4 C 1,6 km/h (1 Bft) 100 %
16.01.2017 23:20 -7,7 C -7,7 C -7,4 C 88 % 1029,2 hPa 0,0 l/m 0,0 km/h (0 Bft) N 0 0 min 0,000 mm 0 W/m -9,3 C -7,7 C 0,0 km/h (0 Bft) 100 %
16.01.2017 23:30 -7,9 C -7,9 C -7,7 C 89 % 1029,4 hPa 0,0 l/m 0,0 km/h (0 Bft) N 0 0 min 0,000 mm 0 W/m -9,4 C -7,9 C 0,0 km/h (0 Bft) 100 %
16.01.2017 23:40 -8,0 C -8,0 C -7,9 C 90 % 1029,4 hPa 0,0 l/m 0,0 km/h (0 Bft) NO 45 0 min 0,000 mm 0 W/m -9,3 C -8,0 C 4,8 km/h (1 Bft) 100 %
16.01.2017 23:50 -7,9 C -8,0 C -7,9 C 90 % 1029,5 hPa 0,0 l/m 0,0 km/h (0 Bft) NO 45 0 min 0,000 mm 0 W/m -9,2 C -7,9 C 1,6 km/h (1 Bft) 100 %
_ Min-Zeit 07:30 07:30 07:30 15:10 00:10 - 00:00 - - - - - 07:30 07:30 00:00 18:30
Minimum _ -9,6 C -9,6 C -9,3 C 78 % 1021,6 hPa - 0,0 km/h (0 Bft) - - - - - -10,9 C -9,6 C 0,0 km/h (0 Bft) 89 %
_ Max-Zeit 12:10 13:30 12:10 22:20 23:50 00:00 15:40 - - 10:10 13:00 12:50 00:00 12:10 15:20 00:00
Maximum _ -1,7 C -1,7 C -1,7 C 94 % 1029,5 hPa 0,0 l/m 2,0 km/h
NO (1 Bft)
- - 10 min 0,101 mm 341 W/m -3,7 C -1,7 C 11,3 km/h
NO (2 Bft)
100 %
Durchschnitt _ -4,7 C -4,8 C -4,5 C 87 % 1024,9 hPa #0,0 l/m 0,2 km/h (0 Bft) NO - #4:20 h #0,432 mm 172 W/m -6,5 C -4,7 C 1,5 km/h (1 Bft) 98 %
PRIVATE WETTERSTATION BILLIGHEIM-ALLFELD - www.neckar-odenwald-wetter.de - Holger Sonntag